createdAt,value
2018-09-11T00:00:54.203Z,46.5
2018-09-11T00:05:52.063Z,46.4
2018-09-11T00:10:49.513Z,46.3
2018-09-11T00:15:47.066Z,46.4
2018-09-11T00:20:45.056Z,46.9
2018-09-11T00:25:43.243Z,47.1
2018-09-11T00:30:40.506Z,47.2
2018-09-11T00:35:38.187Z,47.6
2018-09-11T00:40:35.723Z,47.8
2018-09-11T00:45:33.933Z,47.8
2018-09-11T00:50:31.450Z,47.9
2018-09-11T00:55:29.226Z,48.1
2018-09-11T01:00:26.800Z,48.3
2018-09-11T01:05:24.926Z,48.5
2018-09-11T01:10:22.296Z,48.4
2018-09-11T01:15:20.193Z,48.3
2018-09-11T01:20:18.691Z,48.3
2018-09-11T01:25:16.519Z,48.5
2018-09-11T01:30:14.084Z,48.7
2018-09-11T01:35:12.028Z,48.8
2018-09-11T01:40:09.332Z,48.8
2018-09-11T01:45:06.667Z,48.9
2018-09-11T01:50:04.687Z,49.2
2018-09-11T01:55:07.484Z,49.2
2018-09-11T02:00:04.785Z,49.1
2018-09-11T02:05:02.663Z,49.1
2018-09-11T02:10:00.132Z,49.3
2018-09-11T02:14:57.922Z,49.5
2018-09-11T02:19:55.499Z,49.6
2018-09-11T02:24:53.191Z,49.8
2018-09-11T02:29:51.354Z,50
2018-09-11T02:34:48.520Z,50
2018-09-11T02:39:45.782Z,49.8
2018-09-11T02:44:43.192Z,49.7
2018-09-11T02:49:40.847Z,49.7
2018-09-11T02:54:38.495Z,49.7
2018-09-11T02:59:36.447Z,49.5
2018-09-11T03:04:34.656Z,49.4
2018-09-11T03:09:32.469Z,49.4
2018-09-11T03:14:30.199Z,49.5
2018-09-11T03:19:27.569Z,49.5
2018-09-11T03:24:25.231Z,49.7
2018-09-11T03:29:22.468Z,49.9
2018-09-11T03:34:19.985Z,50
2018-09-11T03:39:18.114Z,49.9
2018-09-11T03:44:15.690Z,50.1
2018-09-11T03:49:14.124Z,50
2018-09-11T03:54:11.285Z,50
2018-09-11T03:59:09.325Z,50.5
2018-09-11T04:04:06.528Z,51
2018-09-11T04:09:03.940Z,51.3
2018-09-11T04:14:01.396Z,51.4
2018-09-11T04:18:58.988Z,51.3
2018-09-11T04:23:56.718Z,51.3
2018-09-11T04:28:54.221Z,51
2018-09-11T04:33:52.058Z,51.3
2018-09-11T04:38:49.489Z,51.1
2018-09-11T04:43:47.268Z,51.7
2018-09-11T04:48:45.178Z,51.5
2018-09-11T04:53:42.830Z,51.7
2018-09-11T04:58:40.238Z,51.9
2018-09-11T05:03:37.839Z,51.7
2018-09-11T05:08:35.431Z,51.7
2018-09-11T05:13:32.799Z,51.9
2018-09-11T05:18:30.670Z,51.9
2018-09-11T05:23:27.945Z,52.4
2018-09-11T05:28:25.402Z,52.5
2018-09-11T05:33:23.214Z,52.4
2018-09-11T05:38:21.162Z,52.3
2018-09-11T05:43:18.554Z,52.2
2018-09-11T05:48:16.044Z,52.4
2018-09-11T05:53:14.931Z,52.3
2018-09-11T05:58:13.040Z,52.2
2018-09-11T06:03:10.345Z,52.3
2018-09-11T06:08:07.677Z,52.4
2018-09-11T06:13:05.153Z,52.2
2018-09-11T06:18:03.343Z,51.7
2018-09-11T06:23:00.978Z,51.6
2018-09-11T06:27:58.345Z,51.7
2018-09-11T06:32:56.149Z,51.6
2018-09-11T06:37:53.715Z,51.5
2018-09-11T06:42:51.004Z,51.3
2018-09-11T06:47:49.598Z,51.3
2018-09-11T06:52:47.449Z,51.2
2018-09-11T06:57:45.058Z,51.3
2018-09-11T07:02:42.728Z,51
2018-09-11T07:07:40.338Z,50.8
2018-09-11T07:12:38.048Z,49.9
2018-09-11T07:17:35.501Z,49.1
2018-09-11T07:22:33.730Z,48.6
2018-09-11T07:27:31.358Z,48.6
2018-09-11T07:32:29.050Z,48.3
2018-09-11T07:37:26.598Z,48
2018-09-11T07:42:24.440Z,47.5
2018-09-11T07:47:22.121Z,47
2018-09-11T07:52:21.263Z,46.3
2018-09-11T07:57:18.962Z,46.2
2018-09-11T08:02:17.211Z,46.2
2018-09-11T08:07:14.710Z,45.6
2018-09-11T08:12:16.253Z,44.9
2018-09-11T08:17:13.017Z,44.9
2018-09-11T08:22:09.534Z,44.9
2018-09-11T08:27:07.080Z,44.4
2018-09-11T08:32:04.671Z,44.1
2018-09-11T08:37:02.287Z,44.2
2018-09-11T08:42:02.174Z,44.3
2018-09-11T08:47:00.057Z,43.2
2018-09-11T08:51:58.651Z,42.8
2018-09-11T08:56:56.112Z,42.9
2018-09-11T09:01:54.302Z,42.8
2018-09-11T09:06:51.539Z,42.3
2018-09-11T09:11:49.727Z,41.9
2018-09-11T09:16:47.198Z,41.9
2018-09-11T09:21:55.571Z,41.8
2018-09-11T09:26:50.651Z,41
2018-09-11T09:31:48.289Z,41.2
2018-09-11T09:36:45.673Z,40.6
2018-09-11T09:41:43.205Z,40.7
2018-09-11T09:51:50.085Z,40
2018-09-11T09:56:48.499Z,39.9
2018-09-11T10:01:46.428Z,39.7
2018-09-11T10:12:00.098Z,39.5
2018-09-11T10:16:58.218Z,39.1
2018-09-11T10:21:56.275Z,39.6
2018-09-11T10:26:53.918Z,39.5
2018-09-11T10:31:51.702Z,39.5
2018-09-11T10:36:52.410Z,39.4
2018-09-11T10:41:49.033Z,39.5
2018-09-11T10:46:46.769Z,39.6
2018-09-11T10:51:44.806Z,39.8
2018-09-11T10:56:43.230Z,39.5
2018-09-11T11:01:41.558Z,39.4
2018-09-11T11:06:39.811Z,39.7
2018-09-11T11:11:36.999Z,38.2
2018-09-11T11:16:34.426Z,38
2018-09-11T11:21:31.933Z,38.3
2018-09-11T11:26:29.652Z,38.1
2018-09-11T11:31:26.926Z,38.3
2018-09-11T11:36:24.703Z,38.3
2018-09-11T11:41:21.450Z,36.8
2018-09-11T11:46:18.970Z,35.9
2018-09-11T11:51:16.680Z,33.8
2018-09-11T11:56:15.037Z,33.6
2018-09-11T12:01:12.879Z,32.6
2018-09-11T12:06:10.624Z,31.9
2018-09-11T12:11:08.377Z,31.3
2018-09-11T12:16:06.277Z,32.1
2018-09-11T12:21:04.041Z,32
2018-09-11T12:26:01.862Z,31.7
2018-09-11T12:30:59.486Z,31.9
2018-09-11T12:35:56.886Z,32.6
2018-09-11T12:40:54.627Z,32.7
2018-09-11T12:45:52.758Z,32
2018-09-11T12:50:50.360Z,31.9
2018-09-11T12:55:48.167Z,32
2018-09-11T13:00:46.091Z,31.9
2018-09-11T13:05:43.398Z,32.4
2018-09-11T13:10:41.219Z,31.7
2018-09-11T13:15:38.822Z,32
2018-09-11T13:20:36.091Z,31.9
2018-09-11T13:25:33.671Z,31.8
2018-09-11T13:30:31.205Z,31.8
2018-09-11T13:35:28.832Z,31.8
2018-09-11T13:40:26.389Z,31.5
2018-09-11T13:45:24.051Z,31.9
2018-09-11T13:50:21.993Z,31.9
2018-09-11T13:55:19.642Z,31.9
2018-09-11T14:00:17.729Z,31.7
2018-09-11T14:05:15.151Z,31.3
2018-09-11T14:10:13.324Z,31.3
2018-09-11T14:15:10.778Z,31.4
2018-09-11T14:20:08.216Z,31.6
2018-09-11T14:25:05.407Z,31.4
2018-09-11T14:30:03.331Z,33.2
2018-09-11T14:35:01.568Z,34.3
2018-09-11T14:39:59.185Z,34.9
2018-09-11T14:44:57.178Z,35
2018-09-11T14:49:54.789Z,35.2
2018-09-11T14:54:52.588Z,35.5
2018-09-11T14:59:51.167Z,35.9
2018-09-11T15:04:48.695Z,36
2018-09-11T15:09:45.915Z,36.4
2018-09-11T15:14:43.416Z,36.9
2018-09-11T15:19:40.414Z,37.3
2018-09-11T15:24:37.848Z,37.7
2018-09-11T15:29:35.276Z,37.7
2018-09-11T15:34:32.698Z,38
2018-09-11T15:39:29.936Z,38.1
2018-09-11T15:44:27.392Z,38.6
2018-09-11T15:49:24.844Z,38.8
2018-09-11T15:54:22.324Z,38.8
2018-09-11T15:59:21.690Z,39.2
2018-09-11T16:04:19.108Z,39.1
2018-09-11T16:09:16.566Z,39.2
2018-09-11T16:14:14.005Z,39.3
2018-09-11T16:19:11.745Z,39.9
2018-09-11T16:24:09.625Z,39.9
2018-09-11T16:29:06.839Z,40
2018-09-11T16:34:04.246Z,40
2018-09-11T16:39:01.842Z,40.1
2018-09-11T16:43:59.281Z,40
2018-09-11T16:48:57.387Z,39.3
2018-09-11T16:53:55.050Z,39.1
2018-09-11T16:58:52.888Z,38.6
2018-09-11T17:03:50.438Z,38.3
2018-09-11T17:08:48.353Z,38.4
2018-09-11T17:13:45.823Z,38.1
2018-09-11T17:18:43.440Z,38.1
2018-09-11T17:23:41.049Z,38.1
2018-09-11T17:28:38.824Z,38.2
2018-09-11T17:33:36.324Z,38.6
2018-09-11T17:38:33.910Z,39.4
2018-09-11T17:43:31.393Z,39.9
2018-09-11T17:48:28.964Z,39.9
2018-09-11T17:53:26.312Z,40.1
2018-09-11T17:58:24.194Z,40.2
2018-09-11T18:03:21.737Z,40.3
2018-09-11T18:08:19.364Z,40.4
2018-09-11T18:13:17.457Z,40
2018-09-11T18:18:14.442Z,40.1
2018-09-11T18:23:12.120Z,40
2018-09-11T18:28:09.516Z,39.8
2018-09-11T18:33:07.064Z,40
2018-09-11T18:38:04.716Z,40.1
2018-09-11T18:43:02.163Z,40.1
2018-09-11T18:47:59.803Z,40.4
2018-09-11T18:52:56.987Z,40.3
2018-09-11T18:57:55.320Z,40.4
2018-09-11T19:02:53.155Z,40.6
2018-09-11T19:07:50.372Z,40.7
2018-09-11T19:12:48.014Z,40.8
2018-09-11T19:17:45.607Z,40.8
2018-09-11T19:22:43.267Z,40.8
2018-09-11T19:27:41.291Z,41
2018-09-11T19:32:38.851Z,41.1
2018-09-11T19:37:36.902Z,41.2
2018-09-11T19:42:34.307Z,41.3
2018-09-11T19:47:32.033Z,41.4
2018-09-11T19:52:29.547Z,41.5
2018-09-11T19:57:28.073Z,41.6
2018-09-11T20:02:25.331Z,41.8
2018-09-11T20:07:22.917Z,42.1
2018-09-11T20:12:20.360Z,42.4
2018-09-11T20:17:17.572Z,42.6
2018-09-11T20:22:15.148Z,42.6
2018-09-11T20:27:12.661Z,43
2018-09-11T20:32:10.395Z,43.2
2018-09-11T20:37:07.695Z,43.4
2018-09-11T20:42:05.333Z,43.6
2018-09-11T20:47:02.864Z,43.8
2018-09-11T20:52:01.097Z,43.8
2018-09-11T20:56:58.691Z,44
2018-09-11T21:01:56.502Z,44.1
2018-09-11T21:06:54.153Z,44.3
2018-09-11T21:11:51.694Z,44.4
2018-09-11T21:16:49.236Z,44.3
2018-09-11T21:21:46.679Z,44.8
2018-09-11T21:26:44.096Z,44.6
2018-09-11T21:31:41.626Z,44.8
2018-09-11T21:36:39.248Z,45
2018-09-11T21:41:36.889Z,45.1
2018-09-11T21:46:34.292Z,45.2
2018-09-11T21:51:32.277Z,45.6
2018-09-11T21:56:29.923Z,45.7
2018-09-11T22:01:27.591Z,45.9
2018-09-11T22:06:25.452Z,46
2018-09-11T22:11:23.135Z,46.2
2018-09-11T22:16:20.635Z,46.4
2018-09-11T22:21:18.000Z,46.3
2018-09-11T22:26:16.296Z,46.5
2018-09-11T22:31:13.419Z,46.6
2018-09-11T22:36:11.372Z,46.8
2018-09-11T22:41:08.575Z,47.2
2018-09-11T22:46:06.280Z,47.1
2018-09-11T22:51:03.298Z,47.3
2018-09-11T22:56:01.292Z,47.5
2018-09-11T23:00:58.336Z,47.7
2018-09-11T23:05:56.021Z,47.6
2018-09-11T23:10:52.963Z,47.7
2018-09-11T23:15:50.768Z,47.8
2018-09-11T23:20:48.038Z,47.9
2018-09-11T23:25:45.607Z,48.2
2018-09-11T23:30:44.107Z,48.3
2018-09-11T23:35:41.616Z,48.3
2018-09-11T23:40:39.233Z,48.6
2018-09-11T23:45:36.583Z,48.7
2018-09-11T23:50:33.955Z,48.3
2018-09-11T23:55:31.687Z,48.2
